createdAt,value
2019-01-29T00:01:46.087Z,33.20
2019-01-29T00:04:15.627Z,34.93
2019-01-29T00:06:45.159Z,35.80
2019-01-29T00:09:14.719Z,34.80
2019-01-29T00:11:44.236Z,35.27
2019-01-29T00:14:13.764Z,33.10
2019-01-29T00:16:43.249Z,35.00
2019-01-29T00:19:12.751Z,35.33
2019-01-29T00:21:42.242Z,32.25
2019-01-29T00:24:11.754Z,34.87
2019-01-29T00:26:41.260Z,33.57
2019-01-29T00:29:10.801Z,28.63
2019-01-29T00:31:40.321Z,29.63
2019-01-29T00:34:09.915Z,32.03
2019-01-29T00:36:39.445Z,33.23
2019-01-29T00:39:09.762Z,32.83
2019-01-29T00:41:39.292Z,36.60
2019-01-29T00:44:08.795Z,26.90
2019-01-29T00:46:38.289Z,32.67
2019-01-29T00:49:07.812Z,34.20
2019-01-29T00:51:37.341Z,31.60
2019-01-29T00:54:07.108Z,27.70
2019-01-29T00:56:36.630Z,27.13
2019-01-29T00:59:06.164Z,29.27
2019-01-29T01:01:35.679Z,30.27
2019-01-29T01:04:05.803Z,26.10
2019-01-29T01:06:35.322Z,27.23
2019-01-29T01:09:08.366Z,26.00
2019-01-29T01:11:37.869Z,31.43
2019-01-29T01:14:07.513Z,27.57
2019-01-29T01:16:36.987Z,27.27
2019-01-29T01:19:06.458Z,26.47
2019-01-29T01:21:35.951Z,26.83
2019-01-29T01:24:05.558Z,25.53
2019-01-29T01:26:35.046Z,24.10
2019-01-29T01:29:04.655Z,26.93
2019-01-29T01:31:34.168Z,25.83
2019-01-29T01:34:03.667Z,27.53
2019-01-29T01:36:33.188Z,28.47
2019-01-29T01:39:07.634Z,27.57
2019-01-29T01:41:37.162Z,27.10
2019-01-29T01:44:06.631Z,27.47
2019-01-29T01:46:36.122Z,27.03
2019-01-29T01:49:05.704Z,28.27
2019-01-29T01:51:35.163Z,26.67
2019-01-29T01:54:04.768Z,26.90
2019-01-29T01:56:34.320Z,28.13
2019-01-29T01:59:03.813Z,28.23
2019-01-29T02:01:33.358Z,28.60
2019-01-29T02:04:02.862Z,28.40
2019-01-29T02:06:32.337Z,30.03
2019-01-29T02:09:01.818Z,28.97
2019-01-29T02:11:31.326Z,29.17
2019-01-29T02:14:00.847Z,27.87
2019-01-29T02:16:30.347Z,29.07
2019-01-29T02:18:59.831Z,29.47
2019-01-29T02:21:29.307Z,29.17
2019-01-29T02:23:58.810Z,31.20
2019-01-29T02:26:28.296Z,30.50
2019-01-29T02:28:57.774Z,30.57
2019-01-29T02:31:27.340Z,29.67
2019-01-29T02:33:56.835Z,30.20
2019-01-29T02:36:26.319Z,32.37
2019-01-29T02:38:55.833Z,33.57
2019-01-29T02:41:25.346Z,30.80
2019-01-29T02:43:54.865Z,28.47
2019-01-29T02:46:24.442Z,31.00
2019-01-29T02:48:53.945Z,28.70
2019-01-29T02:51:23.440Z,27.67
2019-01-29T02:53:52.907Z,25.60
2019-01-29T02:56:22.416Z,27.07
2019-01-29T02:58:51.904Z,25.67
2019-01-29T03:01:21.415Z,26.37
2019-01-29T03:03:50.922Z,26.93
2019-01-29T03:06:20.482Z,26.87
2019-01-29T03:08:49.983Z,24.93
2019-01-29T03:11:19.606Z,26.60
2019-01-29T03:13:49.160Z,25.47
2019-01-29T03:16:19.016Z,23.90
2019-01-29T03:18:48.536Z,23.77
2019-01-29T03:21:18.023Z,24.27
2019-01-29T03:23:47.516Z,24.33
2019-01-29T03:26:16.982Z,25.53
2019-01-29T03:28:46.543Z,26.13
2019-01-29T03:31:16.059Z,26.20
2019-01-29T03:33:45.553Z,24.87
2019-01-29T03:36:15.100Z,25.33
2019-01-29T03:38:44.597Z,26.07
2019-01-29T03:41:14.126Z,25.83
2019-01-29T03:43:43.620Z,26.00
2019-01-29T03:46:13.150Z,26.50
2019-01-29T03:48:42.652Z,27.50
2019-01-29T03:51:12.425Z,25.93
2019-01-29T03:53:42.071Z,25.77
2019-01-29T03:56:11.542Z,25.27
2019-01-29T03:58:41.052Z,25.03
2019-01-29T04:01:10.660Z,25.70
2019-01-29T04:03:40.176Z,23.63
2019-01-29T04:06:09.755Z,23.07
2019-01-29T04:08:39.252Z,24.17
2019-01-29T04:11:08.768Z,25.13
2019-01-29T04:13:38.279Z,26.07
2019-01-29T04:16:07.921Z,25.00
2019-01-29T04:18:37.448Z,27.53
2019-01-29T04:21:06.993Z,26.67
2019-01-29T04:23:36.526Z,26.40
2019-01-29T04:26:06.062Z,26.60
2019-01-29T04:28:35.534Z,28.77
2019-01-29T04:31:05.040Z,27.93
2019-01-29T04:33:34.513Z,26.13
2019-01-29T04:36:04.107Z,47.87
2019-01-29T04:38:33.632Z,48.90
2019-01-29T04:41:03.760Z,33.60
2019-01-29T04:43:33.259Z,31.40
2019-01-29T04:46:02.809Z,31.03
2019-01-29T04:48:32.330Z,30.33
2019-01-29T04:51:01.834Z,25.10
2019-01-29T04:53:31.715Z,25.10
2019-01-29T04:56:01.241Z,20.83
2019-01-29T04:58:30.748Z,18.57
2019-01-29T05:01:00.253Z,19.77
2019-01-29T05:03:29.782Z,21.63
2019-01-29T05:05:59.322Z,20.13
2019-01-29T05:08:28.893Z,18.87
2019-01-29T05:10:58.388Z,17.40
2019-01-29T05:13:27.891Z,17.23
2019-01-29T05:15:57.417Z,18.73
2019-01-29T05:18:26.885Z,19.47
2019-01-29T05:20:56.364Z,20.63
2019-01-29T05:23:25.921Z,19.67
2019-01-29T05:25:55.454Z,20.90
2019-01-29T05:28:24.945Z,19.93
2019-01-29T05:30:54.537Z,20.63
2019-01-29T05:33:24.061Z,20.07
2019-01-29T05:35:53.574Z,20.17
2019-01-29T05:38:23.077Z,20.57
2019-01-29T05:40:52.580Z,20.53
2019-01-29T05:43:22.128Z,19.90
2019-01-29T05:45:51.604Z,17.93
2019-01-29T05:48:21.075Z,17.70
2019-01-29T05:50:50.579Z,19.80
2019-01-29T05:53:20.076Z,19.90
2019-01-29T05:55:49.620Z,21.83
2019-01-29T05:58:19.185Z,18.90
2019-01-29T06:00:48.712Z,19.67
2019-01-29T06:03:18.227Z,21.40
2019-01-29T06:05:47.730Z,24.87
2019-01-29T06:08:17.305Z,23.57
2019-01-29T06:10:46.804Z,20.63
2019-01-29T06:13:16.619Z,26.13
2019-01-29T06:15:46.133Z,24.53
2019-01-29T06:18:15.744Z,25.07
2019-01-29T06:20:50.215Z,25.47
2019-01-29T06:23:19.796Z,25.33
2019-01-29T06:25:49.335Z,25.47
2019-01-29T06:28:18.868Z,25.43
2019-01-29T06:30:48.396Z,26.40
2019-01-29T06:33:17.912Z,25.37
2019-01-29T06:35:47.493Z,25.10
2019-01-29T06:38:17.017Z,23.63
2019-01-29T06:40:46.611Z,24.87
2019-01-29T06:43:16.088Z,24.87
2019-01-29T06:45:46.616Z,25.17
2019-01-29T06:48:16.727Z,24.63
2019-01-29T06:50:46.203Z,23.87
2019-01-29T06:53:15.736Z,25.03
2019-01-29T06:55:45.288Z,25.30
2019-01-29T06:58:16.506Z,24.37
2019-01-29T07:00:46.048Z,24.20
2019-01-29T07:03:18.547Z,24.30
2019-01-29T07:05:48.027Z,23.63
2019-01-29T07:08:17.527Z,23.17
2019-01-29T07:10:47.043Z,21.43
2019-01-29T07:13:16.562Z,21.73
2019-01-29T07:16:20.478Z,21.60
2019-01-29T07:19:08.960Z,23.83
2019-01-29T07:21:38.479Z,23.33
2019-01-29T07:24:08.146Z,22.10
2019-01-29T07:26:37.655Z,23.33
2019-01-29T07:29:07.136Z,23.90
2019-01-29T07:31:36.648Z,26.50
2019-01-29T07:34:06.174Z,27.80
2019-01-29T07:36:35.741Z,29.33
2019-01-29T07:39:08.755Z,24.37
2019-01-29T07:41:38.234Z,27.33
2019-01-29T07:44:07.733Z,31.10
2019-01-29T07:46:37.269Z,28.40
2019-01-29T07:49:06.796Z,28.13
2019-01-29T07:51:36.455Z,24.47
2019-01-29T07:54:06.101Z,29.63
2019-01-29T07:56:35.706Z,28.60
2019-01-29T07:59:05.332Z,26.07
2019-01-29T08:01:35.337Z,26.57
2019-01-29T08:04:05.233Z,25.43
2019-01-29T08:06:34.764Z,26.50
2019-01-29T08:09:06.919Z,26.33
2019-01-29T08:11:36.483Z,24.83
2019-01-29T08:14:06.203Z,25.40
2019-01-29T08:16:35.731Z,22.97
2019-01-29T08:19:05.734Z,24.60
2019-01-29T08:21:35.238Z,22.07
2019-01-29T08:24:04.790Z,22.03
2019-01-29T08:26:34.573Z,22.83
2019-01-29T08:29:04.903Z,23.93
2019-01-29T08:31:34.462Z,23.03
2019-01-29T08:34:04.385Z,25.27
2019-01-29T08:36:33.868Z,24.00
2019-01-29T08:39:05.037Z,24.40
2019-01-29T08:41:34.632Z,26.20
2019-01-29T08:44:04.292Z,24.40
2019-01-29T08:46:33.817Z,25.33
2019-01-29T08:49:03.407Z,24.37
2019-01-29T08:51:32.958Z,47.77
2019-01-29T08:54:02.501Z,59.60
2019-01-29T08:56:32.179Z,60.67
2019-01-29T08:59:01.669Z,76.17
2019-01-29T09:01:31.280Z,80.60
2019-01-29T09:04:00.848Z,81.30
2019-01-29T09:06:30.512Z,82.53
2019-01-29T09:08:59.977Z,81.17
2019-01-29T09:11:29.563Z,87.33
2019-01-29T09:13:59.065Z,86.97
2019-01-29T09:16:28.600Z,88.43
2019-01-29T09:18:58.129Z,89.07
2019-01-29T09:21:27.876Z,94.77
2019-01-29T09:23:57.532Z,95.97
2019-01-29T09:26:27.073Z,96.70
2019-01-29T09:28:56.568Z,98.70
2019-01-29T09:31:26.147Z,102.87
2019-01-29T09:33:55.673Z,75.47
2019-01-29T09:36:25.231Z,95.17
2019-01-29T09:38:54.857Z,117.63
2019-01-29T09:41:24.387Z,118.90
2019-01-29T09:43:53.934Z,114.33
2019-01-29T09:46:23.466Z,112.27
2019-01-29T09:48:53.015Z,120.83
2019-01-29T09:51:22.607Z,111.67
2019-01-29T09:53:52.457Z,107.93
2019-01-29T09:56:22.046Z,105.73
2019-01-29T09:58:51.549Z,110.60
2019-01-29T10:01:21.146Z,112.67
2019-01-29T10:03:50.693Z,111.63
2019-01-29T10:06:20.323Z,105.03
2019-01-29T10:08:50.016Z,99.47
2019-01-29T10:11:19.723Z,101.60
2019-01-29T10:13:49.264Z,97.87
2019-01-29T10:16:18.804Z,99.23
2019-01-29T10:18:51.374Z,92.40
2019-01-29T10:21:21.080Z,100.93
2019-01-29T10:23:50.620Z,102.07
2019-01-29T10:26:20.333Z,90.47
2019-01-29T10:28:49.938Z,95.20
2019-01-29T10:31:19.453Z,92.93
2019-01-29T10:33:48.964Z,95.53
2019-01-29T10:36:18.533Z,96.87
2019-01-29T10:38:48.080Z,92.80
2019-01-29T10:41:17.629Z,85.63
2019-01-29T10:43:47.179Z,91.33
2019-01-29T10:46:16.770Z,91.80
2019-01-29T10:48:46.372Z,78.13
2019-01-29T10:51:16.088Z,77.87
2019-01-29T10:53:45.894Z,78.67
2019-01-29T10:56:15.425Z,72.77
2019-01-29T10:58:44.935Z,70.00
2019-01-29T11:01:14.687Z,66.17
2019-01-29T11:03:44.370Z,65.80
2019-01-29T11:06:13.905Z,65.43
2019-01-29T11:08:43.525Z,67.43
2019-01-29T11:11:13.020Z,63.63
2019-01-29T11:13:42.509Z,67.87
2019-01-29T11:16:12.378Z,65.73
2019-01-29T11:18:41.961Z,67.70
2019-01-29T11:21:11.474Z,66.53
2019-01-29T11:23:40.990Z,64.10
2019-01-29T11:26:10.627Z,67.10
2019-01-29T11:28:40.175Z,61.90
2019-01-29T11:31:09.709Z,59.33
2019-01-29T11:33:39.280Z,60.47
2019-01-29T11:36:08.808Z,61.53
2019-01-29T11:38:38.355Z,53.73
2019-01-29T11:41:08.031Z,56.37
2019-01-29T11:43:37.544Z,61.07
2019-01-29T11:46:07.299Z,70.90
2019-01-29T11:48:36.828Z,79.90
2019-01-29T11:51:06.387Z,81.73
2019-01-29T11:53:35.915Z,76.67
2019-01-29T11:56:05.992Z,75.83
2019-01-29T11:58:35.548Z,69.90
2019-01-29T12:01:07.387Z,70.20
2019-01-29T12:03:36.931Z,67.30
2019-01-29T12:06:06.766Z,68.53
2019-01-29T12:08:36.615Z,69.73
2019-01-29T12:11:06.391Z,72.30
2019-01-29T12:13:36.085Z,74.37
2019-01-29T12:16:10.333Z,76.03
2019-01-29T12:18:40.006Z,73.33
2019-01-29T12:21:09.536Z,79.40
2019-01-29T12:23:42.591Z,77.17
2019-01-29T12:26:13.262Z,72.63
2019-01-29T12:28:43.444Z,63.03
2019-01-29T12:31:13.014Z,57.03
2019-01-29T12:33:42.598Z,60.10
2019-01-29T12:36:12.112Z,61.93
2019-01-29T12:38:41.677Z,63.43
2019-01-29T12:41:11.178Z,64.93
2019-01-29T12:43:40.677Z,62.23
2019-01-29T12:46:10.228Z,62.50
2019-01-29T12:48:39.758Z,63.03
2019-01-29T12:51:16.734Z,63.53
2019-01-29T12:53:46.764Z,63.57
2019-01-29T12:56:21.382Z,60.77
2019-01-29T12:58:47.587Z,61.30
2019-01-29T13:01:17.108Z,61.20
2019-01-29T13:03:46.645Z,63.43
2019-01-29T13:06:16.126Z,67.57
2019-01-29T13:08:45.675Z,66.13
2019-01-29T13:11:15.234Z,64.67
2019-01-29T13:13:44.840Z,67.63
2019-01-29T13:16:14.399Z,66.30
2019-01-29T13:18:43.957Z,69.90
2019-01-29T13:21:15.951Z,66.10
2019-01-29T13:23:45.502Z,67.30
2019-01-29T13:26:15.228Z,66.97
2019-01-29T13:28:45.158Z,65.03
2019-01-29T13:31:14.689Z,64.53
2019-01-29T13:33:44.129Z,66.37
2019-01-29T13:36:13.663Z,61.57
2019-01-29T13:38:43.163Z,67.80
2019-01-29T13:41:12.683Z,69.77
2019-01-29T13:43:42.316Z,66.90
2019-01-29T13:46:11.851Z,66.50
2019-01-29T13:48:41.598Z,66.87
2019-01-29T13:51:11.239Z,67.87
2019-01-29T13:53:41.085Z,65.80
2019-01-29T13:56:10.902Z,66.60
2019-01-29T13:58:40.459Z,71.53
2019-01-29T14:01:10.158Z,68.57
2019-01-29T14:03:39.756Z,69.30
2019-01-29T14:06:09.324Z,67.40
2019-01-29T14:08:38.889Z,66.83
2019-01-29T14:11:08.459Z,64.60
2019-01-29T14:13:38.038Z,71.53
2019-01-29T14:16:10.854Z,66.97
2019-01-29T14:18:40.383Z,71.17
2019-01-29T14:21:09.859Z,72.17
2019-01-29T14:23:39.413Z,70.43
2019-01-29T14:26:08.927Z,67.37
2019-01-29T14:28:38.522Z,67.30
2019-01-29T14:31:08.087Z,72.77
2019-01-29T14:33:37.683Z,71.27
2019-01-29T14:36:16.229Z,71.43
2019-01-29T14:39:05.983Z,68.80
2019-01-29T14:41:36.152Z,69.80
2019-01-29T14:44:08.256Z,64.43
2019-01-29T14:46:38.137Z,78.73
2019-01-29T14:49:07.644Z,72.03
2019-01-29T14:51:37.339Z,76.20
2019-01-29T14:54:06.961Z,69.90
2019-01-29T14:56:36.517Z,74.23
2019-01-29T14:59:06.127Z,74.80
2019-01-29T15:01:35.890Z,74.60
2019-01-29T15:04:05.544Z,72.63
2019-01-29T15:06:35.797Z,72.80
2019-01-29T15:09:11.071Z,80.70
2019-01-29T15:11:40.660Z,73.77
2019-01-29T15:14:10.219Z,80.20
2019-01-29T15:17:04.730Z,78.77
2019-01-29T15:19:35.081Z,74.10
2019-01-29T15:22:08.958Z,82.53
2019-01-29T15:24:41.592Z,84.37
2019-01-29T15:27:11.236Z,77.90
2019-01-29T15:29:40.776Z,78.93
2019-01-29T15:32:10.406Z,74.47
2019-01-29T15:34:43.083Z,75.83
2019-01-29T15:37:12.635Z,75.90
2019-01-29T15:39:42.173Z,76.20
2019-01-29T15:42:11.731Z,83.27
2019-01-29T15:44:41.215Z,88.37
2019-01-29T15:47:10.831Z,79.50
2019-01-29T15:49:40.362Z,82.27
2019-01-29T15:52:09.938Z,79.47
2019-01-29T15:54:39.537Z,80.63
2019-01-29T15:57:14.074Z,77.57
2019-01-29T15:59:43.117Z,80.73
2019-01-29T16:02:11.644Z,86.57
2019-01-29T16:04:41.168Z,110.53
2019-01-29T16:07:10.710Z,127.47
2019-01-29T16:09:40.232Z,128.90
2019-01-29T16:12:09.842Z,143.73
2019-01-29T16:14:39.835Z,155.23
2019-01-29T16:17:09.429Z,154.50
2019-01-29T16:19:38.940Z,161.20
2019-01-29T16:22:08.567Z,160.47
2019-01-29T16:24:38.204Z,163.97
2019-01-29T16:27:07.713Z,156.80
2019-01-29T16:29:37.263Z,138.60
2019-01-29T16:32:06.822Z,148.47
2019-01-29T16:34:36.388Z,148.20
2019-01-29T16:37:05.949Z,154.87
2019-01-29T16:39:35.536Z,145.37
2019-01-29T16:42:05.223Z,135.40
2019-01-29T16:44:34.729Z,142.20
2019-01-29T16:47:04.245Z,126.20
2019-01-29T16:49:33.897Z,117.53
2019-01-29T16:52:03.457Z,128.53
2019-01-29T16:54:33.032Z,123.30
2019-01-29T16:57:02.655Z,110.47
2019-01-29T16:59:32.279Z,104.57
2019-01-29T17:02:01.850Z,107.27
2019-01-29T17:04:31.406Z,112.27
2019-01-29T17:07:00.940Z,121.30
2019-01-29T17:09:30.491Z,122.27
2019-01-29T17:12:00.097Z,127.90
2019-01-29T17:14:29.675Z,121.77
2019-01-29T17:16:59.245Z,124.63
2019-01-29T17:19:28.784Z,128.37
2019-01-29T17:21:58.424Z,110.60
2019-01-29T17:24:27.932Z,108.37
2019-01-29T17:27:00.265Z,107.53
2019-01-29T17:29:29.845Z,100.03
2019-01-29T17:31:59.365Z,101.50
2019-01-29T17:34:28.998Z,87.80
2019-01-29T17:36:58.522Z,101.33
2019-01-29T17:39:28.083Z,106.67
2019-01-29T17:41:57.625Z,117.03
2019-01-29T17:44:27.160Z,112.70
2019-01-29T17:46:56.686Z,120.57
2019-01-29T17:49:26.203Z,137.07
2019-01-29T17:51:55.779Z,126.53
2019-01-29T17:54:25.302Z,138.60
2019-01-29T17:56:54.786Z,132.67
2019-01-29T17:59:24.315Z,117.77
2019-01-29T18:01:53.884Z,105.20
2019-01-29T18:04:23.438Z,105.13
2019-01-29T18:06:53.147Z,119.87
2019-01-29T18:09:23.155Z,109.73
2019-01-29T18:11:52.736Z,113.23
2019-01-29T18:14:22.311Z,98.57
2019-01-29T18:16:53.312Z,79.17
2019-01-29T18:19:23.318Z,84.17
2019-01-29T18:21:57.000Z,96.33
2019-01-29T18:24:25.458Z,92.03
2019-01-29T18:26:55.338Z,86.47
2019-01-29T18:29:25.026Z,82.80
2019-01-29T18:31:55.012Z,85.50
2019-01-29T18:34:24.625Z,91.33
2019-01-29T18:36:54.516Z,80.50
2019-01-29T18:39:24.199Z,81.33
2019-01-29T18:41:54.225Z,98.70
2019-01-29T18:44:24.734Z,102.17
2019-01-29T18:46:54.294Z,94.07
2019-01-29T18:49:26.911Z,114.90
2019-01-29T18:51:56.519Z,114.33
2019-01-29T18:54:26.148Z,114.20
2019-01-29T18:56:55.962Z,112.50
2019-01-29T18:59:25.517Z,115.73
2019-01-29T19:01:55.037Z,97.77
2019-01-29T19:04:24.569Z,99.50
2019-01-29T19:06:54.126Z,109.23
2019-01-29T19:09:23.655Z,115.07
2019-01-29T19:11:53.196Z,108.40
2019-01-29T19:14:22.942Z,100.87
2019-01-29T19:16:52.536Z,102.27
2019-01-29T19:19:24.790Z,104.73
2019-01-29T19:21:54.476Z,106.00
2019-01-29T19:24:24.455Z,109.23
2019-01-29T19:26:55.639Z,112.77
2019-01-29T19:29:27.807Z,100.20
2019-01-29T19:31:59.548Z,103.53
2019-01-29T19:34:29.051Z,113.67
2019-01-29T19:37:00.353Z,92.83
2019-01-29T19:39:30.290Z,95.67
2019-01-29T19:42:00.060Z,135.30
2019-01-29T19:44:29.659Z,98.10
2019-01-29T19:46:59.290Z,106.53
2019-01-29T19:49:28.985Z,94.23
2019-01-29T19:51:58.526Z,94.73
2019-01-29T19:54:28.057Z,89.03
2019-01-29T19:56:57.632Z,106.90
2019-01-29T19:59:27.655Z,102.70
2019-01-29T20:01:57.868Z,88.73
2019-01-29T20:04:27.609Z,95.60
2019-01-29T20:06:57.357Z,103.10
2019-01-29T20:09:27.470Z,101.03
2019-01-29T20:11:57.076Z,91.67
2019-01-29T20:14:26.706Z,87.37
2019-01-29T20:16:57.650Z,86.27
2019-01-29T20:19:27.367Z,92.93
2019-01-29T20:21:57.066Z,90.17
2019-01-29T20:24:26.870Z,81.33
2019-01-29T20:26:56.386Z,85.27
2019-01-29T20:29:25.947Z,82.77
2019-01-29T20:31:55.704Z,85.23
2019-01-29T20:34:25.348Z,81.73
2019-01-29T20:36:55.408Z,81.03
2019-01-29T20:39:34.469Z,84.00
2019-01-29T20:41:56.364Z,89.70
2019-01-29T20:44:25.998Z,91.27
2019-01-29T20:46:55.518Z,82.33
2019-01-29T20:49:25.044Z,86.27
2019-01-29T20:51:54.752Z,84.47
2019-01-29T20:54:24.303Z,91.50
2019-01-29T20:56:53.860Z,88.10
2019-01-29T20:59:23.424Z,86.17
2019-01-29T21:01:52.942Z,85.07
2019-01-29T21:04:22.548Z,85.60
2019-01-29T21:06:52.035Z,89.80
2019-01-29T21:09:21.571Z,82.83
2019-01-29T21:11:51.104Z,81.73
2019-01-29T21:14:20.624Z,81.57
2019-01-29T21:21:23.278Z,86.80
2019-01-29T21:23:52.781Z,93.87
2019-01-29T21:26:22.337Z,88.90
2019-01-29T21:28:51.831Z,88.93
2019-01-29T21:31:21.344Z,86.40
2019-01-29T21:33:50.874Z,89.00
2019-01-29T21:36:20.388Z,79.00
2019-01-29T21:38:49.976Z,83.10
2019-01-29T21:41:19.611Z,84.53
2019-01-29T21:43:49.080Z,83.97
2019-01-29T21:46:18.587Z,75.30
2019-01-29T21:48:48.114Z,94.80
2019-01-29T21:51:17.608Z,103.83
2019-01-29T21:53:47.120Z,106.00
2019-01-29T21:56:17.106Z,138.47
2019-01-29T21:58:46.635Z,148.10
2019-01-29T22:01:18.413Z,147.73
2019-01-29T22:03:47.918Z,157.47
2019-01-29T22:06:17.537Z,140.63
2019-01-29T22:08:47.070Z,159.00
2019-01-29T22:11:16.605Z,164.43
2019-01-29T22:13:46.142Z,162.90
2019-01-29T22:16:15.652Z,158.33
2019-01-29T22:18:45.144Z,140.90
2019-01-29T22:21:14.644Z,138.73
2019-01-29T22:23:44.141Z,116.27
2019-01-29T22:26:13.644Z,123.93
2019-01-29T22:28:43.186Z,111.73
2019-01-29T22:31:12.709Z,113.80
2019-01-29T22:33:42.226Z,113.33
2019-01-29T22:36:11.747Z,124.77
2019-01-29T22:38:41.248Z,134.10
2019-01-29T22:41:10.818Z,118.00
2019-01-29T22:43:40.348Z,128.90
2019-01-29T22:46:10.268Z,122.93
2019-01-29T22:48:39.837Z,125.50
2019-01-29T22:51:09.357Z,118.77
2019-01-29T22:53:38.850Z,119.83
2019-01-29T22:56:08.347Z,123.60
2019-01-29T22:58:37.881Z,120.90
2019-01-29T23:01:22.445Z,112.23
2019-01-29T23:04:19.264Z,113.90
2019-01-29T23:07:21.898Z,110.93
2019-01-29T23:09:51.427Z,151.30
2019-01-29T23:12:20.976Z,162.00
2019-01-29T23:14:50.550Z,159.83
2019-01-29T23:17:20.052Z,142.97
2019-01-29T23:19:50.657Z,136.77
2019-01-29T23:22:20.154Z,109.63
2019-01-29T23:24:49.835Z,95.00
2019-01-29T23:27:19.316Z,106.10
2019-01-29T23:29:48.812Z,107.87
2019-01-29T23:32:18.308Z,88.20
2019-01-29T23:34:47.957Z,98.13
2019-01-29T23:37:17.486Z,101.13
2019-01-29T23:39:47.020Z,100.93
2019-01-29T23:42:16.541Z,97.57
2019-01-29T23:44:46.083Z,94.30
2019-01-29T23:47:15.613Z,75.60
2019-01-29T23:49:45.237Z,83.57
2019-01-29T23:52:14.770Z,82.47
2019-01-29T23:54:44.253Z,72.40
2019-01-29T23:57:13.757Z,89.77
2019-01-29T23:59:53.331Z,75.50
